Home > Products > Valid Products > TAF

000
FTUS41 KRNK 192320
TAFBLF
TAF
KBLF 192320Z 2000/2024 09006KT P6SM SCT150 BKN250
     FM200400 11007KT P6SM BKN250
     FM201400 09006KT P6SM SCT250=



000
FTUS41 KRNK 192320
TAFLWB
TAF
KLWB 192320Z 2000/2024 09004KT P6SM SCT045 BKN150
     FM200200 VRB03KT P6SM BKN250
     FM201500 05006KT P6SM SCT250=



000
FTUS41 KRNK 192320
TAFDAN
TAF
KDAN 192320Z 2000/2024 05008KT P6SM SCT060 OVC100
     FM200300 06010G16KT P6SM -RA BKN030 OVC060
     FM201200 03011G22KT P6SM SCT080 BKN150=



000
FTUS41 KRNK 192320
TAFROA
TAF
KROA 192320Z 2000/2024 13006KT P6SM SCT150 OVC250
     FM200200 11007KT P6SM SCT035 BKN150
     FM201100 35010KT P6SM SCT080 BKN200
     FM201500 05009KT P6SM BKN250=



000
FTUS41 KRNK 192320
TAFLYH
TAF
KLYH 192320Z 2000/2024 05006KT P6SM SCT150 OVC200
     FM200400 03010KT P6SM SCT030 OVC150
     FM201400 05011G22KT P6SM SCT080 BKN150=



000
FTUS41 KRNK 192158 AAB
TAFBLF
TAF AMD
KBLF 192158Z 1922/2018 09009KT P6SM SCT150 BKN250
     FM200400 12007KT P6SM BKN250
     FM201400 09006KT P6SM SKC=



000
FTUS41 KRNK 192157 AAA
TAFROA
TAF AMD
KROA 192157Z 1922/2018 12009KT P6SM SCT150 OVC250
     FM200200 11007KT P6SM SCT035 BKN150
     FM201100 35010KT P6SM SCT080
     FM201500 05009KT P6SM SKC=



000
FTUS41 KRNK 192157 AAA
TAFLYH
TAF AMD
KLYH 192157Z 1922/2018 04011KT P6SM SCT150 OVC200
     FM200400 03010KT P6SM SCT030 OVC150
     FM201400 05011G22KT P6SM SCT080 BKN150=



000
FTUS41 KRNK 191900 AAA
TAFBLF
TAF AMD
KBLF 191900Z 1919/2018 11011G22KT P6SM BKN200
     FM200400 12007KT P6SM BKN250
     FM201400 09006KT P6SM SKC=



000
FTUS41 KRNK 191720
TAFROA
TAF
KROA 191720Z 1918/2018 03012KT P6SM BKN120
     FM200200 07008KT P6SM BKN035 BKN100
     FM201100 35010KT P6SM SCT080
     FM201500 05009KT P6SM SKC=



000
FTUS41 KRNK 191720
TAFBLF
TAF
KBLF 191720Z 1918/2018 05011KT P6SM SCT045 BKN150
     FM200400 12007KT P6SM BKN250
     FM201400 09006KT P6SM SKC=



000
FTUS41 KRNK 191720
TAFDAN
TAF
KDAN 191720Z 1918/2018 07010KT P6SM SCT035 OVC080
     FM200300 06010G16KT P6SM -RA BKN030 OVC060
     FM201200 03011G22KT P6SM SCT060 OVC100=



000
FTUS41 KRNK 191720
TAFLYH
TAF
KLYH 191720Z 1918/2018 05011G21KT P6SM OVC120
     FM200400 03010KT P6SM BKN030 OVC200
     FM201400 05011G22KT P6SM SCT080 BKN150=



000
FTUS41 KRNK 191720
TAFLWB
TAF
KLWB 191720Z 1918/2018 02007KT P6SM SCT045 BKN150
     FM200200 VRB03KT P6SM BKN250
     FM201500 05006KT P6SM SKC=



000
FTUS41 KRNK 191136
TAFLWB
TAF
KLWB 191136Z 1912/2012 07005KT P6SM OVC200
     FM191600 08007KT P6SM SCT050 OVC200
     FM200200 10006KT P6SM BKN250=



000
FTUS41 KRNK 191136
TAFDAN
TAF
KDAN 191136Z 1912/2012 06008KT 5SM -RA BR BKN050 OVC090
     FM191400 07010G16KT 5SM -RA BKN035 OVC080
     FM192100 08013G20KT 5SM -RA BR BKN035 OVC100
     FM200400 06010G16KT P6SM -RA BKN030 OVC150=



000
FTUS41 KRNK 191136
TAFROA
TAF
KROA 191136Z 1912/2012 04005KT P6SM OVC100
     FM191400 06006KT P6SM -RA SCT050 OVC090
     FM191800 08012G18KT P6SM BKN045 OVC150
     FM200200 07008KT P6SM BKN035 OVC250=



000
FTUS41 KRNK 191136
TAFBLF
TAF
KBLF 191136Z 1912/2012 10006KT P6SM OVC150
      TEMPO 1915/1919 BKN045
     FM191900 11008G16KT P6SM SCT045 OVC200
     FM200400 11007KT P6SM BKN250=



000
FTUS41 KRNK 191136
TAFLYH
TAF
KLYH 191136Z 1912/2012 03005KT P6SM SCT050 OVC100
     FM191400 05008KT P6SM -RA BKN045 OVC090
     FM192000 07013G20KT P6SM BKN035 OVC150
     FM200400 05010G16KT P6SM BKN030 OVC200=



000
FTUS41 KRNK 190543
TAFBLF
TAF
KBLF 190543Z 1906/2006 VRB04KT P6SM OVC150
     FM191200 10006KT P6SM BKN045 OVC150
     FM191800 11008G16KT P6SM SCT045 OVC200=



000
FTUS41 KRNK 190543
TAFLYH
TAF
KLYH 190543Z 1906/2006 03005KT P6SM OVC150
     FM191300 05008KT P6SM -RA BKN035 OVC090
     FM192000 07013G20KT P6SM BKN035 OVC150=



000
FTUS41 KRNK 190543
TAFLWB
TAF
KLWB 190543Z 1906/2006 VRB03KT P6SM OVC200
     FM191300 04005KT P6SM BKN050 OVC200
     FM191700 09006KT P6SM SCT050 OVC250=



000
FTUS41 KRNK 190543
TAFROA
TAF
KROA 190543Z 1906/2006 04005KT P6SM OVC150
     FM191400 06007KT P6SM -RA BKN040 OVC090
     FM192000 08012G18KT P6SM BKN035 OVC200=



000
FTUS41 KRNK 190543
TAFDAN
TAF
KDAN 190543Z 1906/2006 05007KT P6SM -RA SCT070 OVC100
     FM190800 06008KT 5SM -RA BR BKN050 OVC080
     FM191400 07012G18KT 5SM -RA BR BKN035 OVC060
     FM192100 08013G20KT P6SM BKN035 OVC100=



000
FTUS41 KRNK 182339
TAFROA
TAF
KROA 182339Z 1900/1924 15005KT P6SM OVC180
     FM190600 04005KT P6SM -RA OVC060
     FM191400 02006KT 6SM -RA SCT025 OVC040
     FM192000 08010KT P6SM OVC035=



000
FTUS41 KRNK 182339
TAFLWB
TAF
KLWB 182339Z 1900/1924 VRB03KT P6SM OVC150
     FM191300 04005KT P6SM OVC060
     FM191900 09006KT P6SM SCT060=



000
FTUS41 KRNK 182339
TAFLYH
TAF
KLYH 182339Z 1900/1924 14003KT P6SM OVC200
     FM190400 06005KT P6SM OVC100
     FM190600 02008KT P6SM -RA OVC060
     FM191400 04010KT 6SM -RA SCT030 OVC050
     FM192000 05012KT P6SM OVC035=



000
FTUS41 KRNK 182339
TAFBLF
TAF
KBLF 182339Z 1900/1924 12005KT P6SM OVC150
     FM191300 10006KT P6SM OVC050
     FM191900 08005KT P6SM SCT050=



000
FTUS41 KRNK 182339
TAFDAN
TAF
KDAN 182339Z 1900/1924 08006KT P6SM OVC120
     FM190200 03006KT P6SM -RA OVC060
     FM191200 02010KT 5SM -RA SCT015 OVC025
     FM191700 04012KT P6SM OVC025=



000
FTUS41 KRNK 181721
TAFLWB
TAF
KLWB 181721Z 1818/1918 VRB03KT P6SM BKN200
     FM190200 07005KT P6SM BKN040 OVC100
     FM191000 05006KT P6SM OVC035=



000
FTUS41 KRNK 181721
TAFROA
TAF
KROA 181721Z 1818/1918 15003KT P6SM SCT015 OVC120
     FM190100 09005KT P6SM SCT025 OVC100
     FM190700 07010KT P6SM BKN025 OVC080
     FM191000 36006KT P6SM -RA OVC015
     FM191400 01011KT 5SM -RA SCT005 OVC012=



000
FTUS41 KRNK 181721
TAFBLF
TAF
KBLF 181721Z 1818/1918 VRB03KT P6SM OVC200
     FM190000 12006KT P6SM BKN035 OVC100
     FM190800 10005KT P6SM BKN025 OVC060
     FM191300 08008KT P6SM -RA OVC015=



000
FTUS41 KRNK 181721
TAFDAN
TAF
KDAN 181721Z 1818/1918 02004KT P6SM OVC120
     FM190000 03010G16KT P6SM SCT015 OVC080
     FM190800 02012G18KT 5SM -RA SCT008 OVC015
     FM191300 01014G25KT 4SM -RA BR OVC005=



000
FTUS41 KRNK 181721
TAFLYH
TAF
KLYH 181721Z 1818/1918 15004KT P6SM OVC150
     FM190000 04010KT P6SM SCT030 OVC100
     FM190700 07012G18KT P6SM -RA OVC025
     FM191400 03011KT 5SM -RA SCT007 OVC015=



000
FTUS41 KRNK 181137
TAFROA
TAF
KROA 181137Z 1812/1912 13007KT P6SM OVC015
     FM181500 11008KT P6SM SCT020 OVC150
     FM190100 08007KT P6SM SCT020 OVC100
     FM190600 07010KT P6SM BKN015 OVC080 PROB30 1908/1912 P6SM -RA=



000
FTUS41 KRNK 181137
TAFBLF
TAF
KBLF 181137Z 1812/1912 13008KT P6SM OVC200
     FM181500 13008KT P6SM SCT035 OVC150
     FM190000 12006KT P6SM BKN035 OVC100=



000
FTUS41 KRNK 181137
TAFLWB
TAF
KLWB 181137Z 1812/1912 VRB04KT P6SM OVC200
     FM181600 VRB04KT P6SM SCT040 OVC150
     FM190200 07005KT P6SM BKN040 OVC100=



000
FTUS41 KRNK 181137
TAFDAN
TAF
KDAN 181137Z 1812/1912 04006KT P6SM OVC010
      TEMPO 1812/1814 OVC008
     FM181500 04008KT P6SM SCT015 OVC150
     FM190000 03010G16KT P6SM BKN015 OVC080
     FM190700 02012G18KT 5SM -RA OVC008=



000
FTUS41 KRNK 181137
TAFLYH
TAF
KLYH 181137Z 1812/1912 06006KT P6SM OVC015
     FM181500 05008KT P6SM SCT020 OVC150
     FM190000 04010G16KT P6SM SCT020 OVC100
     FM190700 07012G18KT P6SM -RA OVC015=



000
FTUS41 KRNK 181059 AAA
TAFDAN
TAF AMD
KDAN 181059Z 1811/1906 07006KT P6SM BKN010 BKN250
      TEMPO 1811/1814 BKN008
     FM181400 06008KT P6SM SCT015 OVC250
     FM182300 05009KT P6SM BKN090 OVC150=



000
FTUS41 KRNK 181021 CCA
TAFROA
TAF COR
KROA 181021Z 1810/1906 13005KT P6SM SCT015 OVC200
      TEMPO 1810/1814 BKN015
     FM181400 10007KT P6SM SCT025 OVC250
     FM190100 08005KT P6SM BKN100 OVC200=



000
FTUS41 KRNK 181020 AAA
TAFROA
TAF AMD
KROA 181020Z 1810/1906 13005KT P6SM BKN015 OVC200
     FM181400 10007KT P6SM SCT025 OVC250
     FM190100 08005KT P6SM BKN100 OVC200=



000
FTUS41 KRNK 180727 AAA
TAFLYH
TAF AMD
KLYH 180727Z 1807/1906 05005KT P6SM SCT015 BKN250
      TEMPO 1807/1811 BKN015
     FM181400 05007KT P6SM OVC250
     FM190000 04008KT P6SM BKN100 OVC200=



000
FTUS41 KRNK 180540
TAFDAN
TAF
KDAN 180540Z 1806/1906 07006KT P6SM BKN250
     FM181400 06008KT P6SM OVC250
     FM182300 05009KT P6SM BKN090 OVC150=



000
FTUS41 KRNK 180540
TAFBLF
TAF
KBLF 180540Z 1806/1906 14008G16KT P6SM BKN250
     FM181500 13007KT P6SM OVC250
     FM190000 12006KT P6SM BKN120 OVC200=



000
FTUS41 KRNK 180540
TAFROA
TAF
KROA 180540Z 1806/1906 12003KT P6SM BKN250
     FM181400 10007KT P6SM OVC250
     FM190100 08005KT P6SM BKN100 OVC200=



000
FTUS41 KRNK 180540
TAFLWB
TAF
KLWB 180540Z 1806/1906 14003KT P6SM BKN250
     FM181400 VRB04KT P6SM BKN250=



000
FTUS41 KRNK 180540
TAFLYH
TAF
KLYH 180540Z 1806/1906 05005KT P6SM BKN250
     FM181400 05007KT P6SM OVC250
     FM190000 04008KT P6SM BKN100 OVC200=



000
FTUS41 KRNK 172325
TAFDAN
TAF
KDAN 172325Z 1800/1824 10005KT P6SM SKC
     FM181600 06006KT P6SM BKN250=



000
FTUS41 KRNK 172325
TAFLYH
TAF
KLYH 172325Z 1800/1824 10005KT P6SM SKC
     FM181700 06006KT P6SM BKN250=



000
FTUS41 KRNK 172325
TAFBLF
TAF
KBLF 172325Z 1800/1824 16008KT P6SM SKC
     FM180900 14003KT P6SM SKC
     FM181500 18006KT P6SM BKN250=



000
FTUS41 KRNK 172325
TAFROA
TAF
KROA 172325Z 1800/1824 12003KT P6SM SKC
     FM181700 10006KT P6SM BKN250=



000
FTUS41 KRNK 172325
TAFLWB
TAF
KLWB 172325Z 1800/1824 10003KT P6SM SKC
     FM181500 19006KT P6SM BKN250=



000
FTUS41 KRNK 171732
TAFROA
TAF
KROA 171732Z 1718/1818 VRB04KT P6SM SKC
     FM180000 11005KT P6SM SKC
     FM181400 07007KT P6SM BKN250=



000
FTUS41 KRNK 171732
TAFBLF
TAF
KBLF 171732Z 1718/1818 09007KT P6SM SKC
     FM180000 13008KT P6SM SKC
     FM181300 15004KT P6SM BKN250=



000
FTUS41 KRNK 171732
TAFDAN
TAF
KDAN 171732Z 1718/1818 04007KT P6SM SKC
     FM180000 08006KT P6SM SKC
     FM181200 03004KT P6SM BKN250=



000
FTUS41 KRNK 171732
TAFLYH
TAF
KLYH 171732Z 1718/1818 05008KT P6SM SKC
     FM180000 06002KT P6SM SKC
     FM180700 05004KT P6SM BKN250=



000
FTUS41 KRNK 171732
TAFLWB
TAF
KLWB 171732Z 1718/1818 06003KT P6SM SKC
     FM180100 00000KT P6SM SKC
     FM181400 17005KT P6SM BKN250=



000
FTUS41 KRNK 171129
TAFLWB
TAF
KLWB 171129Z 1712/1812 13006KT P6SM SKC
     FM180000 13005KT P6SM SCT250
     FM180700 12005KT P6SM BKN250=



000
FTUS41 KRNK 171129
TAFROA
TAF
KROA 171129Z 1712/1812 08007KT P6SM SCT250
     FM180000 11005KT P6SM SCT250
     FM180600 10005KT P6SM BKN250=



000
FTUS41 KRNK 171129
TAFBLF
TAF
KBLF 171129Z 1712/1812 13010G18KT P6SM SCT250
     FM180000 13008KT P6SM SCT250
     FM180600 12008KT P6SM BKN250=



000
FTUS41 KRNK 171129
TAFDAN
TAF
KDAN 171129Z 1712/1812 06006KT P6SM SKC
     FM171600 07009G16KT P6SM SKC
     FM180000 08006KT P6SM SCT250
     FM180800 05007KT P6SM BKN250=



000
FTUS41 KRNK 171129
TAFLYH
TAF
KLYH 171129Z 1712/1812 04006KT P6SM SKC
     FM171500 06009G16KT P6SM SCT250
     FM180000 08006KT P6SM SCT250
     FM180700 07006KT P6SM BKN250=



000
FTUS41 KRNK 170533
TAFLWB
TAF
KLWB 170533Z 1706/1806 13006KT P6SM SKC
     FM180000 13005KT P6SM SCT250=



000
FTUS41 KRNK 170533
TAFROA
TAF
KROA 170533Z 1706/1806 09005KT P6SM SKC
     FM171300 08008KT P6SM SKC
     FM180000 11007KT P6SM SCT250=



000
FTUS41 KRNK 170533
TAFBLF
TAF
KBLF 170533Z 1706/1806 13009G18KT P6SM SKC
     FM180000 13007KT P6SM SCT250=



000
FTUS41 KRNK 170533
TAFDAN
TAF
KDAN 170533Z 1706/1806 06005KT P6SM SKC
     FM171800 06009G16KT P6SM SKC
     FM180000 08006KT P6SM SCT250=



000
FTUS41 KRNK 170533
TAFLYH
TAF
KLYH 170533Z 1706/1806 04006KT P6SM SKC
     FM171500 06009G16KT P6SM SKC
     FM180000 08007KT P6SM FEW250=



    US Dept of Commerce
    National Oceanic and Atmospheric Administration
    National Weather Service
    1325 East West Highway
    Silver Spring, MD 20910
    Page Author: NWS Internet Services Team
Disclaimer
Information Quality
Credits
Glossary
Privacy Policy
Freedom of Information Act (FOIA)
About Us
Career Opportunities